Time;durP1;ratioP1;P1;durP2;ratioP2;P2;SDS_P1;SDS_P2;PMS_P1;PMS_P2;Temp;Humidity;BMP_temperature;BMP_pressure;BME280_temperature;BME280_humidity;BME280_pressure;Samples;Min_cycle;Max_cycle;Signal;HPM_P1;HPM_P2
2022/09/27 00:01:13;;;;;;;;;3.80;3.80;;;;;20.64;73.23;98183.06;5051780;28;8850;-78
2022/09/27 00:03:43;;;;;;;;;3.20;3.20;;;;;20.19;74.56;98177.03;5047100;28;8851;-78
2022/09/27 00:06:14;;;;;;;;;4.20;3.00;;;;;19.65;76.34;98188.19;5031603;28;9000;-81
2022/09/27 00:08:43;;;;;;;;;5.20;5.20;;;;;19.03;80.44;98187.41;5015150;28;9047;-83
2022/09/27 00:11:18;;;;;;;;;9.20;8.80;;;;;18.70;83.00;98189.19;5031302;28;8867;-80
2022/09/27 00:13:48;;;;;;;;;6.60;6.60;;;;;18.79;82.71;98187.84;5047903;28;8836;-80
2022/09/27 00:16:17;;;;;;;;;5.80;5.80;;;;;18.99;81.45;98181.44;5030970;28;8909;-80
2022/09/27 00:18:46;;;;;;;;;7.60;6.80;;;;;18.76;82.97;98179.25;5029799;28;8977;-79
2022/09/27 00:21:14;;;;;;;;;8.20;7.60;;;;;18.68;83.48;98180.50;5029727;28;9536;-81
2022/09/27 00:23:43;;;;;;;;;5.00;5.00;;;;;18.67;83.36;98178.78;5048394;28;8974;-78
2022/09/27 00:26:13;;;;;;;;;5.60;5.60;;;;;18.86;82.40;98165.44;5047542;28;8859;-80
2022/09/27 00:28:42;;;;;;;;;4.00;4.00;;;;;19.36;80.87;98162.63;5044079;28;8888;-80
2022/09/27 00:31:19;;;;;;;;;5.00;5.00;;;;;19.67;79.98;98153.72;5064200;28;8873;-80
2022/09/27 00:33:49;;;;;;;;;7.00;6.20;;;;;19.92;78.83;98146.97;5048037;28;8890;-79
2022/09/27 00:36:19;;;;;;;;;3.60;3.60;;;;;20.12;77.90;98151.88;5051164;28;8955;-80
2022/09/27 00:38:48;;;;;;;;;5.00;4.60;;;;;19.85;77.10;98147.34;5068124;28;8850;-80
2022/09/27 00:41:20;;;;;;;;;6.40;6.00;;;;;20.15;77.03;98143.78;5069094;28;8850;-78
2022/09/27 00:43:50;;;;;;;;;6.40;6.40;;;;;20.34;76.77;98138.16;5050875;28;8862;-82
2022/09/27 00:46:27;;;;;;;;;7.20;6.40;;;;;20.51;76.11;98136.22;5067824;28;8850;-80
2022/09/27 00:49:04;;;;;;;;;6.60;6.60;;;;;20.63;76.13;98138.97;5047600;28;8828;-81
2022/09/27 00:51:37;;;;;;;;;7.60;7.20;;;;;20.68;75.37;98125.47;5021491;28;8969;-79
2022/09/27 00:54:09;;;;;;;;;6.00;6.00;;;;;20.75;74.88;98124.09;5065311;28;8895;-80
2022/09/27 00:56:39;;;;;;;;;6.60;5.80;;;;;20.79;74.31;98106.19;5033236;28;8869;-79
2022/09/27 00:59:14;;;;;;;;;8.20;6.60;;;;;20.94;74.26;98107.81;5033637;28;8971;-79
2022/09/27 01:01:44;;;;;;;;;5.80;5.80;;;;;20.93;74.12;98105.31;5062696;28;8869;-81
2022/09/27 01:04:17;;;;;;;;;8.80;8.20;;;;;20.97;73.97;98114.75;5069545;28;8870;-79
2022/09/27 01:06:46;;;;;;;;;8.00;8.00;;;;;20.95;73.38;98109.53;5052839;28;8984;-80
2022/09/27 01:09:15;;;;;;;;;11.00;10.20;;;;;20.91;73.37;98105.41;5065537;28;9607;-79
2022/09/27 01:11:49;;;;;;;;;9.00;9.00;;;;;20.98;73.60;98098.75;5049536;28;8865;-81
2022/09/27 01:14:40;;;;;;;;;11.20;10.40;;;;;21.14;73.60;98103.03;5047764;28;8861;-78
2022/09/27 01:17:24;;;;;;;;;12.60;10.80;;;;;21.14;74.05;98103.03;5046342;28;8858;-80
2022/09/27 01:20:30;;;;;;;;;9.20;9.20;;;;;21.28;73.56;98094.13;5068446;28;8875;-79
2022/09/27 01:23:19;;;;;;;;;11.80;11.80;;;;;21.26;73.95;98096.03;5051688;28;9031;-78
2022/09/27 01:26:00;;;;;;;;;16.40;14.60;;;;;21.32;73.92;98090.31;5066269;28;8842;-80
2022/09/27 01:28:46;;;;;;;;;12.60;11.80;;;;;21.33;74.09;98081.41;5067788;28;8839;-80
2022/09/27 01:31:24;;;;;;;;;11.20;11.00;;;;;21.30;73.67;98076.31;5067606;28;8826;-81
2022/09/27 01:34:03;;;;;;;;;11.20;10.20;;;;;21.28;72.35;98070.25;5012883;28;9022;-80
2022/09/27 01:36:43;;;;;;;;;10.40;10.40;;;;;21.16;72.06;98078.09;4994491;28;8829;-83
2022/09/27 01:39:30;;;;;;;;;11.20;11.20;;;;;21.23;73.46;98074.09;4988178;28;8865;-81
2022/09/27 01:42:24;;;;;;;;;12.60;11.40;;;;;21.25;73.63;98073.13;4988978;28;8838;-81
2022/09/27 01:45:02;;;;;;;;;11.00;10.80;;;;;21.27;73.31;98074.72;4987373;28;8936;-80
2022/09/27 01:47:45;;;;;;;;;10.20;9.20;;;;;21.26;72.88;98062.41;4990923;28;8872;-82
2022/09/27 01:50:39;;;;;;;;;8.40;8.00;;;;;21.27;73.01;98060.63;4996414;28;9036;-79
2022/09/27 01:53:15;;;;;;;;;8.00;8.00;;;;;21.33;72.57;98063.69;4967490;28;9067;-81
2022/09/27 01:56:08;;;;;;;;;11.00;10.00;;;;;21.37;72.85;98051.06;4971533;28;8887;-79
2022/09/27 01:58:59;;;;;;;;;10.80;10.80;;;;;21.42;72.86;98052.44;4985923;28;10323;-78
2022/09/27 02:01:32;;;;;;;;;8.20;8.20;;;;;21.43;72.85;98040.03;4991403;28;9114;-79
2022/09/27 02:04:05;;;;;;;;;12.60;11.60;;;;;21.45;72.57;98039.97;4994059;28;8843;-80
2022/09/27 02:07:09;;;;;;;;;11.40;10.00;;;;;21.43;72.54;98042.69;5012143;28;8875;-79
2022/09/27 02:09:45;;;;;;;;;12.40;11.00;;;;;21.40;72.92;98043.75;4997532;28;8891;-80
2022/09/27 02:12:29;;;;;;;;;13.40;13.40;;;;;21.43;72.56;98040.03;5029831;28;8869;-80
2022/09/27 02:15:04;;;;;;;;;9.80;9.80;;;;;21.43;72.55;98040.88;4976650;28;8928;-79
2022/09/27 02:17:41;;;;;;;;;15.20;15.20;;;;;21.43;72.71;98040.88;4961486;28;9077;-77
2022/09/27 02:20:19;;;;;;;;;18.60;17.80;;;;;21.34;72.03;98043.31;5009374;28;8874;-81
2022/09/27 02:23:05;;;;;;;;;14.20;14.20;;;;;21.25;71.70;98038.63;5009654;28;8921;-78
2022/09/27 02:25:43;;;;;;;;;20.00;19.00;;;;;21.05;71.83;98045.31;5065020;28;8862;-79
2022/09/27 02:28:25;;;;;;;;;17.00;16.00;;;;;20.94;72.15;98046.88;5049834;28;8925;-78
2022/09/27 02:30:54;;;;;;;;;17.80;17.80;;;;;20.90;72.85;98040.09;5067241;28;8976;-77
2022/09/27 02:33:30;;;;;;;;;20.20;19.60;;;;;21.03;74.02;98038.31;5076696;28;8851;-80
2022/09/27 02:36:02;;;;;;;;;18.60;15.80;;;;;21.14;73.42;98037.59;5021434;28;8842;-79
2022/09/27 02:38:31;;;;;;;;;19.40;19.40;;;;;21.17;72.88;98025.91;5052722;28;8865;-78
2022/09/27 02:41:02;;;;;;;;;17.00;15.80;;;;;21.05;72.61;98030.25;5069239;28;8885;-79
2022/09/27 02:43:33;;;;;;;;;17.40;17.40;;;;;20.80;72.78;98034.56;5066812;28;8853;-78
2022/09/27 02:46:24;;;;;;;;;16.60;16.00;;;;;20.45;73.57;98042.13;5048399;28;8863;-80
2022/09/27 02:49:04;;;;;;;;;14.40;13.40;;;;;20.24;75.25;98037.31;5048066;28;8921;-78
2022/09/27 02:51:52;;;;;;;;;16.60;16.60;;;;;20.53;74.15;98036.34;5025171;28;8867;-79
2022/09/27 02:54:32;;;;;;;;;20.80;19.40;;;;;20.69;74.55;98023.00;5008702;28;8864;-80
2022/09/27 02:57:14;;;;;;;;;17.20;15.80;;;;;20.87;74.41;98015.59;5008251;28;8864;-80
2022/09/27 02:59:53;;;;;;;;;13.00;12.00;;;;;20.91;73.91;98017.94;5008299;28;8860;-81
2022/09/27 03:02:53;;;;;;;;;14.60;14.60;;;;;21.02;73.77;98022.53;4969553;28;8858;-79
2022/09/27 03:05:29;;;;;;;;;23.40;21.40;;;;;20.59;72.45;98028.84;4964935;28;8856;-78
2022/09/27 03:07:59;;;;;;;;;17.40;16.20;;;;;20.03;75.26;98033.38;4966290;28;8942;-79
2022/09/27 03:10:30;;;;;;;;;14.60;13.60;;;;;19.82;76.86;98035.59;4953320;28;8834;-81
2022/09/27 03:12:59;;;;;;;;;25.20;25.00;;;;;19.40;78.93;98034.63;4965202;28;8876;-78
2022/09/27 03:15:27;;;;;;;;;24.20;20.00;;;;;19.78;78.10;98027.00;4966270;28;8856;-81
2022/09/27 03:18:02;;;;;;;;;22.20;20.20;;;;;20.12;76.79;98021.38;4949858;28;8860;-77
2022/09/27 03:20:54;;;;;;;;;22.40;21.20;;;;;20.34;75.98;98021.69;4894428;29;8873;-80
2022/09/27 03:23:28;;;;;;;;;20.00;20.00;;;;;20.49;75.37;98018.97;4939122;28;8903;-79
2022/09/27 03:25:57;;;;;;;;;32.40;30.60;;;;;20.60;75.13;98020.00;4947472;29;8853;-80
2022/09/27 03:28:28;;;;;;;;;65.00;51.25;;;;;20.76;74.53;98003.09;4947176;29;8951;-78
2022/09/27 03:30:57;;;;;;;;;25.20;22.40;;;;;20.85;73.93;97991.88;4947347;29;8845;-79
2022/09/27 03:33:46;;;;;;;;;15.00;15.00;;;;;20.94;73.73;97993.88;4945923;28;8885;-81
2022/09/27 03:36:15;;;;;;;;;17.00;15.60;;;;;20.98;73.27;97994.50;4931821;29;8883;-81
2022/09/27 03:38:45;;;;;;;;;17.00;15.80;;;;;21.02;73.26;97990.72;4945711;28;8924;-80
2022/09/27 03:41:18;;;;;;;;;131.50;118.50;;;;;21.08;72.88;97994.72;5008083;28;8901;-77
2022/09/27 03:43:47;;;;;;;;;51.75;42.25;;;;;21.10;72.79;97995.50;5024402;28;12461;-83
2022/09/27 03:46:15;;;;;;;;;30.60;29.00;;;;;21.13;72.64;97989.97;4933695;28;8874;-82
2022/09/27 03:48:44;;;;;;;;;64.25;52.25;;;;;21.08;72.83;97989.44;4949740;28;9673;-82
2022/09/27 03:51:13;;;;;;;;;55.00;43.75;;;;;21.06;72.63;97991.34;4949893;28;8899;-81
2022/09/27 03:53:42;;;;;;;;;32.20;30.00;;;;;21.05;72.83;97992.31;4962993;28;8894;-80
2022/09/27 03:56:13;;;;;;;;;20.80;19.00;;;;;21.05;72.79;97992.31;4969464;28;8871;-83
2022/09/27 03:58:42;;;;;;;;;18.80;17.60;;;;;20.97;72.50;97991.03;5011462;28;8867;-81
2022/09/27 04:01:11;;;;;;;;;18.00;16.40;;;;;20.95;72.65;97989.44;5011631;28;8875;-80
2022/09/27 04:03:41;;;;;;;;;17.60;15.20;;;;;20.87;72.69;97976.72;5022597;28;8857;-79
2022/09/27 04:06:28;;;;;;;;;16.20;16.20;;;;;20.84;72.58;97982.22;5073001;28;8883;-81
2022/09/27 04:08:57;;;;;;;;;16.80;16.40;;;;;20.75;72.28;97980.19;5056488;28;8877;-80
2022/09/27 04:11:38;;;;;;;;;17.20;16.20;;;;;20.73;72.71;97982.09;5055860;28;8837;-80
2022/09/27 04:14:07;;;;;;;;;63.75;49.75;;;;;20.78;72.63;97985.28;5055655;28;8853;-80
2022/09/27 04:16:46;;;;;;;;;52.25;43.75;;;;;20.82;72.75;97984.97;5055733;28;8946;-80
2022/09/27 04:19:30;;;;;;;;;20.00;17.60;;;;;20.74;72.04;97983.81;5059351;28;9034;-78
2022/09/27 04:22:10;;;;;;;;;35.20;30.20;;;;;20.72;72.39;97994.50;5076565;28;8842;-79
2022/09/27 04:24:39;;;;;;;;;21.80;19.00;;;;;20.79;72.57;97989.63;5043300;28;8842;-81
2022/09/27 04:27:27;;;;;;;;;12.80;12.20;;;;;20.80;72.46;97978.91;5044973;28;8872;-80
2022/09/27 04:29:57;;;;;;;;;15.40;14.40;;;;;20.73;71.86;97985.56;5056010;28;8852;-82
2022/09/27 04:32:45;;;;;;;;;13.20;13.20;;;;;20.61;71.91;97983.75;5073103;28;9077;-82
2022/09/27 04:38:23;;;;;;;;;14.20;14.20;;;;;20.47;72.26;97986.44;5050653;28;8977;-79
2022/09/27 04:40:52;;;;;;;;;13.80;13.60;;;;;20.43;72.46;97984.00;5051341;28;8846;-81
2022/09/27 04:43:23;;;;;;;;;15.00;14.00;;;;;20.36;73.07;97985.34;5002023;28;8862;-81
2022/09/27 04:45:52;;;;;;;;;13.60;13.20;;;;;20.33;72.90;97982.91;5050139;28;8854;-78
2022/09/27 04:48:22;;;;;;;;;13.60;11.00;;;;;20.27;72.78;97979.81;5067447;28;8850;-80
2022/09/27 04:50:57;;;;;;;;;12.80;12.60;;;;;20.29;72.48;97984.06;5034680;28;8870;-78
2022/09/27 04:53:26;;;;;;;;;9.40;9.40;;;;;20.27;73.12;97979.81;5067817;28;8847;-82
2022/09/27 04:55:55;;;;;;;;;14.00;12.60;;;;;20.25;73.06;97986.06;5067981;28;8869;-79
2022/09/27 04:58:26;;;;;;;;;12.00;12.00;;;;;20.21;72.65;97989.00;5067276;28;8850;-79
2022/09/27 05:00:55;;;;;;;;;11.60;10.20;;;;;20.26;72.86;97989.53;5066297;28;8850;-81
2022/09/27 05:03:41;;;;;;;;;14.80;13.00;;;;;20.32;73.13;97990.94;5034417;28;8851;-82
2022/09/27 05:06:14;;;;;;;;;11.20;11.20;;;;;20.39;72.40;97986.94;5051110;28;8976;-79
2022/09/27 05:08:44;;;;;;;;;10.40;10.00;;;;;20.39;72.97;97985.13;5031008;28;9746;-79
2022/09/27 05:11:25;;;;;;;;;10.00;10.00;;;;;20.35;72.32;97973.06;5027965;28;8921;-79
2022/09/27 05:14:30;;;;;;;;;11.40;9.80;;;;;20.49;72.99;97977.47;5054185;28;9043;-79
2022/09/27 05:17:19;;;;;;;;;9.60;9.60;;;;;20.45;72.51;97979.47;5060992;28;8859;-79
2022/09/27 05:20:08;;;;;;;;;11.40;10.80;;;;;20.57;73.05;97980.44;5051072;28;8864;-81
2022/09/27 05:23:04;;;;;;;;;11.80;11.80;;;;;20.71;72.95;97974.25;5027252;28;8844;-78
2022/09/27 05:25:33;;;;;;;;;10.00;10.00;;;;;20.83;72.94;97964.59;5026672;28;8856;-82
2022/09/27 05:28:04;;;;;;;;;18.00;14.60;;;;;20.92;72.66;97963.13;4955741;28;8915;-80
2022/09/27 05:30:35;;;;;;;;;11.00;10.80;;;;;20.92;71.94;97961.34;4970671;28;8881;-80
2022/09/27 05:33:08;;;;;;;;;7.20;6.40;;;;;20.88;71.47;97949.25;4970896;28;8868;-81
2022/09/27 05:36:06;;;;;;;;;7.40;7.00;;;;;20.86;71.54;97960.91;5003699;28;8887;-83
2022/09/27 05:38:38;;;;;;;;;9.40;9.40;;;;;20.83;71.55;97949.56;4988446;28;8880;-82
2022/09/27 05:41:07;;;;;;;;;9.80;9.20;;;;;20.75;71.24;97953.69;4973944;28;8852;-80
2022/09/27 05:43:36;;;;;;;;;9.40;9.20;;;;;20.83;71.89;97949.56;5005336;28;8864;-78
2022/09/27 05:46:06;;;;;;;;;12.00;10.40;;;;;20.95;72.49;97949.69;5022814;28;8955;-79
2022/09/27 05:48:39;;;;;;;;;10.00;9.80;;;;;21.07;72.09;97948.81;5000980;28;8961;-79
2022/09/27 05:51:08;;;;;;;;;19.60;18.20;;;;;21.14;71.95;97950.09;4966471;28;8887;-80
2022/09/27 05:53:41;;;;;;;;;18.20;17.60;;;;;21.20;72.13;97943.53;4950572;28;8897;-81
2022/09/27 05:56:20;;;;;;;;;23.20;19.60;;;;;21.28;72.31;97948.28;4951416;28;8899;-81
2022/09/27 05:59:05;;;;;;;;;21.60;21.20;;;;;21.36;71.88;97945.94;5006646;28;8884;-80
2022/09/27 06:01:55;;;;;;;;;21.80;21.40;;;;;21.43;71.66;97949.88;5028308;28;8842;-81
2022/09/27 06:04:44;;;;;;;;;22.80;20.80;;;;;21.53;71.82;97947.44;5046833;28;8866;-81
2022/09/27 06:07:39;;;;;;;;;15.60;15.60;;;;;21.73;71.77;97949.50;5046866;28;9062;-78
2022/09/27 06:10:16;;;;;;;;;25.00;23.00;;;;;21.72;70.94;97952.28;5016389;28;8889;-81
2022/09/27 06:12:46;;;;;;;;;23.40;20.80;;;;;21.75;70.81;97949.41;5048567;28;8858;-81
2022/09/27 06:15:33;;;;;;;;;18.00;18.00;;;;;21.81;71.89;97954.25;5030800;28;8853;-81
2022/09/27 06:18:06;;;;;;;;;18.00;18.00;;;;;21.85;71.26;97947.78;5012484;28;8869;-83
2022/09/27 06:20:37;;;;;;;;;22.80;21.00;;;;;21.92;71.18;97959.66;5042662;28;8869;-81
2022/09/27 06:23:07;;;;;;;;;22.00;21.00;;;;;21.95;71.16;97964.75;5009886;28;8973;-81
2022/09/27 06:25:37;;;;;;;;;20.20;19.60;;;;;21.97;70.38;97959.31;5023324;28;9568;-80
2022/09/27 06:28:15;;;;;;;;;20.60;19.00;;;;;22.03;70.30;97964.19;5045598;28;8872;-80
2022/09/27 06:30:49;;;;;;;;;17.80;17.40;;;;;22.08;70.52;97953.22;5009261;28;8852;-79
2022/09/27 06:33:41;;;;;;;;;19.60;17.80;;;;;22.17;70.72;97947.22;5028584;28;8905;-83
2022/09/27 06:36:10;;;;;;;;;20.60;20.40;;;;;22.16;69.57;97938.44;5027904;28;8889;-81
2022/09/27 06:38:42;;;;;;;;;18.60;18.60;;;;;22.17;69.58;97949.88;4980860;28;8858;-79
2022/09/27 06:41:15;;;;;;;;;17.20;15.60;;;;;22.26;69.61;97959.88;5028593;28;8888;-77
2022/09/27 06:43:57;;;;;;;;;16.20;14.40;;;;;22.28;68.16;97947.31;5032535;28;8866;-76
2022/09/27 06:46:44;;;;;;;;;14.80;13.40;;;;;22.34;69.37;97941.56;5065059;28;8874;-76
2022/09/27 06:49:24;;;;;;;;;11.80;10.40;;;;;22.33;69.14;97944.34;5064865;28;8846;-79
2022/09/27 06:51:53;;;;;;;;;10.40;9.40;;;;;22.36;68.36;97946.75;5031608;28;8955;-75
2022/09/27 06:54:23;;;;;;;;;10.80;9.40;;;;;22.38;68.39;97939.50;5031437;28;8874;-76
2022/09/27 06:56:52;;;;;;;;;8.20;8.20;;;;;22.35;68.01;97945.06;5048448;28;9626;-77
2022/09/27 07:02:26;;;;;;;;;4.00;3.40;;;;;22.44;67.48;97940.84;5019935;28;9620;-75
2022/09/27 07:05:00;;;;;;;;;8.00;8.00;;;;;22.42;67.25;97941.00;5071878;28;8884;-77
2022/09/27 07:07:45;;;;;;;;;9.60;8.20;;;;;22.53;67.26;97941.03;5048423;28;8932;-76
2022/09/27 07:10:16;;;;;;;;;8.20;8.00;;;;;22.69;67.93;97937.22;5081470;28;8920;-79
2022/09/27 07:12:47;;;;;;;;;7.40;7.00;;;;;22.71;67.27;97949.41;5050101;28;8997;-77
2022/09/27 07:15:18;;;;;;;;;9.40;9.40;;;;;22.77;66.26;97937.47;4991762;28;8870;-78
2022/09/27 07:17:47;;;;;;;;;8.60;8.60;;;;;22.82;66.96;97940.63;4988247;28;8890;-77
2022/09/27 07:20:17;;;;;;;;;7.20;7.20;;;;;22.88;67.15;97950.78;4988035;28;8989;-77
2022/09/27 07:22:46;;;;;;;;;10.80;10.00;;;;;22.98;67.66;97949.09;5004475;28;8959;-76
2022/09/27 07:25:15;;;;;;;;;12.60;12.60;;;;;23.09;67.24;97940.31;5004222;28;9083;-78
2022/09/27 07:27:45;;;;;;;;;12.60;10.00;;;;;23.13;67.00;97933.81;5004366;28;8854;-77
2022/09/27 07:30:15;;;;;;;;;10.20;10.00;;;;;23.22;67.54;97929.59;5008809;28;8987;-77
2022/09/27 07:32:43;;;;;;;;;7.20;6.80;;;;;23.28;65.81;97929.09;4975502;28;8854;-78
2022/09/27 07:35:14;;;;;;;;;8.60;8.20;;;;;23.46;66.52;97920.63;4975688;28;8857;-76
2022/09/27 07:37:46;;;;;;;;;8.00;7.20;;;;;23.60;66.43;97915.06;5025220;28;8908;-78
2022/09/27 07:40:14;;;;;;;;;9.60;9.60;;;;;23.69;66.22;97924.13;5028118;28;8981;-76
2022/09/27 07:42:43;;;;;;;;;8.60;8.40;;;;;23.67;65.10;97926.06;4962048;28;8862;-78
2022/09/27 07:45:13;;;;;;;;;8.00;8.00;;;;;23.69;64.45;97926.78;5011112;28;9009;-77
2022/09/27 07:47:50;;;;;;;;;8.80;8.80;;;;;23.70;64.33;97923.97;5069533;28;8917;-78
2022/09/27 07:50:29;;;;;;;;;9.40;9.40;;;;;23.78;64.35;97923.38;5087694;28;8880;-78
2022/09/27 07:53:03;;;;;;;;;7.80;7.80;;;;;23.73;64.06;97910.44;5041595;28;8992;-79
2022/09/27 07:55:37;;;;;;;;;9.60;9.60;;;;;23.77;64.91;97908.38;5072170;28;8888;-77
2022/09/27 07:58:12;;;;;;;;;12.00;12.00;;;;;23.86;64.93;97907.66;5072403;28;8950;-76
2022/09/27 08:00:42;;;;;;;;;9.80;9.80;;;;;23.91;65.54;97908.13;5072886;28;8930;-77
2022/09/27 08:03:30;;;;;;;;;11.60;11.60;;;;;23.96;64.53;97902.41;5060976;28;8814;-77
2022/09/27 08:06:03;;;;;;;;;11.00;9.60;;;;;23.98;65.13;97911.13;5090391;28;9594;-75
2022/09/27 08:08:33;;;;;;;;;9.00;8.40;;;;;23.94;63.91;97923.00;5090350;28;9614;-77
2022/09/27 08:11:13;;;;;;;;;13.00;12.40;;;;;24.13;65.11;97907.19;5055728;28;8950;-78
2022/09/27 08:13:42;;;;;;;;;12.00;12.00;;;;;24.15;65.19;97915.06;5071580;28;9473;-76
2022/09/27 08:16:12;;;;;;;;;13.60;13.40;;;;;23.99;63.56;97911.97;5067318;28;8851;-78
2022/09/27 08:19:04;;;;;;;;;9.80;8.00;;;;;24.11;64.48;97914.47;5051116;28;8864;-74
2022/09/27 08:21:53;;;;;;;;;10.40;10.00;;;;;24.09;63.53;97910.25;5062758;28;8944;-77
2022/09/27 08:24:36;;;;;;;;;10.00;10.00;;;;;24.11;63.18;97914.47;5071673;28;9681;-77
2022/09/27 08:27:22;;;;;;;;;12.00;12.00;;;;;24.25;63.64;97915.16;5049426;28;8846;-75
2022/09/27 08:29:56;;;;;;;;;9.20;9.20;;;;;24.31;61.58;97917.31;5045965;28;8876;-75
2022/09/27 08:32:27;;;;;;;;;9.60;9.00;;;;;24.44;62.84;97912.66;5008732;28;8911;-77
2022/09/27 08:34:56;;;;;;;;;8.00;8.00;;;;;24.37;62.00;97897.31;5088631;28;8877;-77
2022/09/27 08:37:25;;;;;;;;;9.00;8.60;;;;;24.29;60.83;97897.94;5070586;28;8892;-75
2022/09/27 08:39:55;;;;;;;;;8.00;8.00;;;;;24.38;60.01;97893.66;5069326;28;9579;-76
2022/09/27 08:42:31;;;;;;;;;6.40;6.40;;;;;24.47;60.10;97880.41;5065115;28;8977;-79
2022/09/27 08:45:08;;;;;;;;;4.20;4.20;;;;;24.37;57.76;97884.84;5068126;28;8897;-81
2022/09/27 08:47:41;;;;;;;;;7.60;6.40;;;;;24.51;59.52;97884.53;5060155;28;8879;-79
2022/09/27 08:50:22;;;;;;;;;4.60;4.60;;;;;24.67;58.99;97885.91;5007037;28;8978;-81
2022/09/27 08:52:58;;;;;;;;;1.80;1.80;;;;;24.71;59.18;97874.00;5071279;28;8960;-78
2022/09/27 08:55:36;;;;;;;;;4.40;4.40;;;;;24.71;56.82;97861.50;5042036;28;8952;-77
2022/09/27 08:58:16;;;;;;;;;5.80;5.20;;;;;24.78;57.53;97856.47;5039013;28;8868;-77
2022/09/27 09:00:45;;;;;;;;;5.80;5.80;;;;;24.87;58.70;97863.69;5067303;28;8846;-76
2022/09/27 09:03:19;;;;;;;;;7.00;6.40;;;;;24.84;55.20;97863.13;5023283;28;8962;-78
2022/09/27 09:06:05;;;;;;;;;5.00;5.00;;;;;24.90;56.81;97863.44;5058816;28;9000;-77
2022/09/27 09:08:46;;;;;;;;;6.00;4.00;;;;;24.86;53.81;97856.69;5074419;28;9793;-76
2022/09/27 09:14:32;;;;;;;;;3.40;3.40;;;;;25.18;54.22;97858.38;5072052;28;8853;-75
2022/09/27 09:17:14;;;;;;;;;4.40;4.40;;;;;25.19;54.45;97854.72;5020807;28;8882;-77
2022/09/27 09:20:15;;;;;;;;;4.40;4.40;;;;;25.25;54.42;97848.88;5055406;28;8841;-78
2022/09/27 09:23:22;;;;;;;;;5.00;5.00;;;;;25.24;51.92;97852.53;5071627;28;8838;-77
2022/09/27 09:26:00;;;;;;;;;4.00;4.00;;;;;25.30;53.00;97837.81;5053087;28;8851;-78
2022/09/27 09:28:44;;;;;;;;;4.40;4.40;;;;;25.21;51.61;97830.56;5046338;28;9004;-75
2022/09/27 09:31:22;;;;;;;;;3.00;3.00;;;;;25.32;51.64;97830.50;5009617;28;9677;-77
2022/09/27 09:33:55;;;;;;;;;3.60;3.60;;;;;25.25;51.56;97832.00;5031329;28;8882;-77
2022/09/27 09:36:31;;;;;;;;;6.40;5.40;;;;;25.49;52.04;97821.81;5025422;28;8858;-77
2022/09/27 09:39:05;;;;;;;;;5.00;4.00;;;;;25.55;52.47;97824.94;4969778;28;8881;-76
2022/09/27 09:41:42;;;;;;;;;4.80;4.80;;;;;25.76;52.62;97825.66;5015412;28;8924;-77
2022/09/27 09:44:21;;;;;;;;;6.60;6.60;;;;;25.78;51.17;97825.53;5039793;28;9708;-77
2022/09/27 09:46:54;;;;;;;;;4.20;4.20;;;;;25.97;53.12;97836.22;4991676;28;8852;-79
2022/09/27 09:49:28;;;;;;;;;4.60;4.60;;;;;26.10;51.53;97829.78;5008799;28;8965;-77
2022/09/27 09:52:02;;;;;;;;;4.00;3.40;;;;;25.94;49.94;97827.69;4994161;28;8846;-78
2022/09/27 09:54:40;;;;;;;;;5.40;5.40;;;;;26.22;51.28;97828.66;5041081;28;8864;-69
2022/09/27 09:57:16;;;;;;;;;9.40;9.20;;;;;26.26;50.82;97824.72;5008213;28;8857;-71
2022/09/27 09:59:51;;;;;;;;;8.00;8.00;;;;;26.26;51.25;97822.88;5020098;28;8834;-70
2022/09/27 10:02:28;;;;;;;;;8.20;8.00;;;;;26.39;51.16;97827.94;5039295;28;8918;-70
2022/09/27 10:05:04;;;;;;;;;5.60;5.60;;;;;26.34;51.08;97824.00;5009114;28;8879;-72
2022/09/27 10:07:39;;;;;;;;;9.40;9.00;;;;;26.42;50.56;97822.28;5018887;28;8884;-73
2022/09/27 10:10:13;;;;;;;;;7.80;7.60;;;;;26.58;51.03;97815.50;5063879;28;9693;-73
2022/09/27 10:12:55;;;;;;;;;5.60;5.60;;;;;26.60;49.25;97824.25;5067684;28;9663;-73
2022/09/27 10:15:32;;;;;;;;;8.00;8.00;;;;;26.68;48.95;97821.69;5063053;28;8869;-72
2022/09/27 10:18:00;;;;;;;;;6.00;6.00;;;;;26.72;49.65;97811.56;5050377;28;9868;-73
2022/09/27 10:20:34;;;;;;;;;9.40;9.00;;;;;26.84;49.87;97823.75;5051896;28;8857;-74
2022/09/27 10:23:11;;;;;;;;;8.40;8.40;;;;;26.83;50.89;97817.56;5068676;28;8846;-77
2022/09/27 10:26:00;;;;;;;;;10.80;9.20;;;;;27.04;50.08;97800.44;5044957;28;8962;-76
2022/09/27 10:28:42;;;;;;;;;9.60;9.00;;;;;27.14;50.26;97811.09;5066217;28;9883;-77
2022/09/27 10:31:16;;;;;;;;;4.80;4.80;;;;;27.27;50.51;97816.97;5069475;28;8865;-77
2022/09/27 10:34:06;;;;;;;;;10.00;9.60;;;;;27.44;49.91;97801.94;5044038;28;8857;-79
2022/09/27 10:36:41;;;;;;;;;8.00;8.00;;;;;27.46;48.46;97802.63;5011653;28;8911;-81
2022/09/27 10:39:22;;;;;;;;;8.20;8.20;;;;;27.81;47.81;97796.47;5045830;28;8892;-79
2022/09/27 10:41:51;;;;;;;;;6.60;6.60;;;;;27.76;48.21;97795.25;5044734;28;8869;-78
2022/09/27 10:44:52;;;;;;;;;7.60;7.20;;;;;28.08;48.21;97784.00;5028168;28;8899;-78
2022/09/27 10:47:30;;;;;;;;;9.60;8.80;;;;;28.00;47.68;97794.66;5045837;28;8872;-78
2022/09/27 10:50:06;;;;;;;;;7.20;7.20;;;;;28.01;47.57;97780.25;5026086;28;8847;-79
2022/09/27 10:53:03;;;;;;;;;7.20;7.20;;;;;27.98;47.88;97778.72;5023646;28;8876;-77
2022/09/27 10:55:35;;;;;;;;;9.40;9.40;;;;;27.86;46.97;97787.97;5008376;28;9017;-78
2022/09/27 10:58:04;;;;;;;;;8.00;7.20;;;;;27.73;47.43;97774.97;4946767;28;8844;-80
2022/09/27 11:00:37;;;;;;;;;9.00;9.00;;;;;27.55;46.89;97774.94;4991715;28;8922;-78
2022/09/27 11:03:14;;;;;;;;;10.60;10.60;;;;;27.66;47.30;97773.06;4992358;28;8856;-78
2022/09/27 11:05:43;;;;;;;;;8.00;8.00;;;;;27.68;47.52;97779.09;5028817;28;8856;-79
2022/09/27 11:08:32;;;;;;;;;8.20;7.20;;;;;27.75;46.52;97772.13;4993265;28;8897;-79
2022/09/27 11:11:20;;;;;;;;;11.00;8.80;;;;;27.81;48.10;97771.53;5018936;28;8858;-79
2022/09/27 11:14:01;;;;;;;;;11.00;9.00;;;;;27.90;47.82;97767.94;5044291;28;8866;-81
2022/09/27 11:17:02;;;;;;;;;9.20;9.20;;;;;28.05;48.00;97764.72;4944524;28;8850;-80
2022/09/27 11:19:48;;;;;;;;;9.40;8.00;;;;;28.10;47.89;97757.03;4967256;28;9702;-78
2022/09/27 11:22:35;;;;;;;;;9.20;9.20;;;;;28.06;47.42;97750.31;4964219;28;8866;-78
2022/09/27 11:25:18;;;;;;;;;12.40;12.00;;;;;28.07;47.55;97744.81;4975677;28;8876;-81
2022/09/27 11:28:04;;;;;;;;;8.40;8.40;;;;;28.07;47.56;97742.13;5011980;28;8833;-79
2022/09/27 11:30:45;;;;;;;;;7.00;7.00;;;;;27.77;45.78;97741.53;5013080;28;8856;-79
2022/09/27 11:33:44;;;;;;;;;12.60;12.00;;;;;27.39;46.13;97737.28;5028939;28;8865;-81
2022/09/27 11:36:24;;;;;;;;;21.00;19.80;;;;;26.32;49.13;97738.63;5012508;28;8881;-80
2022/09/27 11:39:04;;;;;;;;;12.00;12.00;;;;;26.13;49.66;97730.66;5029040;28;8856;-79
2022/09/27 11:41:56;;;;;;;;;19.20;18.00;;;;;26.05;52.30;97720.69;5013231;28;8985;-81
2022/09/27 11:44:58;;;;;;;;;16.80;15.80;;;;;26.37;53.46;97720.31;5016915;28;8852;-77
2022/09/27 11:47:56;;;;;;;;;14.40;12.60;;;;;26.29;53.78;97719.34;5012640;28;8856;-79
2022/09/27 11:50:49;;;;;;;;;13.40;12.80;;;;;26.47;54.47;97712.25;5013254;28;8902;-79
2022/09/27 11:53:34;;;;;;;;;11.20;11.20;;;;;26.54;55.27;97705.34;5013456;28;8868;-80
2022/09/27 11:56:18;;;;;;;;;10.60;9.80;;;;;26.66;55.23;97714.03;5011060;28;9685;-79
2022/09/27 11:59:12;;;;;;;;;11.80;11.80;;;;;26.84;54.69;97714.94;5072905;28;8866;-80
2022/09/27 12:01:50;;;;;;;;;10.20;10.00;;;;;27.10;53.94;97713.38;5041523;28;8875;-78
2022/09/27 12:04:47;;;;;;;;;12.00;11.00;;;;;27.27;51.34;97703.72;5046021;28;8856;-81
2022/09/27 12:07:26;;;;;;;;;11.40;10.80;;;;;27.46;50.46;97705.41;4992424;28;8985;-81
2022/09/27 12:10:04;;;;;;;;;16.20;15.00;;;;;27.61;50.75;97691.31;4997389;28;8947;-82
2022/09/27 12:12:40;;;;;;;;;13.20;12.60;;;;;27.63;50.83;97683.13;4978298;28;8840;-80
2022/09/27 12:15:16;;;;;;;;;11.20;10.80;;;;;27.74;49.90;97672.19;5010097;28;8914;-80
2022/09/27 12:17:48;;;;;;;;;12.00;11.60;;;;;27.75;49.98;97675.69;4944733;28;8844;-80
2022/09/27 12:20:23;;;;;;;;;17.00;17.00;;;;;26.74;52.41;97674.03;4992951;28;8954;-85
2022/09/27 12:22:57;;;;;;;;;15.80;15.80;;;;;25.73;52.93;97679.09;4959564;28;8855;-80
2022/09/27 12:26:11;;;;;;;;;16.60;15.80;;;;;23.85;58.63;97669.03;4969103;28;9047;-79
2022/09/27 12:28:49;;;;;;;;;16.80;15.20;;;;;23.09;61.13;97666.44;4952883;28;8959;-79